KPHL Airport Information

Runway Information
Runway 08 Length 5000 ft width 150 ft
Elevation 9 ft Threshold 0 ft Heading 76
Runway 26 Length 5000 ft Width 150 ft
Elevation 36 ft Threshold 0 ft Heading 256
Runway 09L Length 9500 ft width 150 ft
Elevation 13 ft Threshold 0 ft Heading 76
Runway 27R Length 9500 ft Width 150 ft
Elevation 11 ft Threshold 0 ft Heading 256
Runway 09R Length 10506 ft width 200 ft
Elevation 20 ft Threshold 0 ft Heading 76
Runway 27L Length 10506 ft Width 200 ft
Elevation 9 ft Threshold 0 ft Heading 256
Runway 17 Length 5460 ft width 150 ft
Elevation 9 ft Threshold 0 ft Heading 159
Runway 35 Length 5460 ft Width 150 ft
Elevation 9 ft Threshold 0 ft Heading 339
Airport Frequencies
Type APP Name APP Frequency 123.8 MHZ
Type ARR Name PRM Frequency 120.425 MHZ
Type ATIS Name ATIS Frequency 133.4 MHZ
Type CLD Name CLNC DEL Frequency 118.85 MHZ
Type DEP Name DEP Frequency 119.75 MHZ
Type GND Name GND Frequency 121.9 MHZ
Type TWR Name TWR Frequency 118.5 MHZ
Type UNIC Name UNICOM Frequency 122.95 MHZ
Airport Navaids
Type NDB Name Speez Frequency 222 KHZ
Airport Weather Information & NOTAM
ADDS - METARS form results

(0559 UTC 19 July 2019)
Data provider http://aviationweather.gov/metar/data/
 
METAR text: KPHL 190554Z 10005KT 6SM BR BKN010 BKN024 BKN050 26/24 A2990 RMK AO2 SLP123 T02560239 10267 20250 50004 $
Conditions at: KPHL (PHILADELPHIA , PA, US) observed 0554 UTC 19 July 2019
Temperature: 25.6°C (78°F)
Dewpoint: 23.9°C (75°F) [RH = 90%]
Pressure (altimeter): 29.90 inches Hg (1012.6 mb)
[Sea-level pressure: 1012.3 mb]
Winds: from the E (100 degrees) at 6 MPH (5 knots; 2.6 m/s)
Visibility: 6 miles (10 km)
Ceiling: 1000 feet AGL
Clouds: broken clouds at 1000 feet AGL
broken clouds at 2400 feet AGL
broken clouds at 5000 feet AGL
Weather: BR  (mist)
SOME DATA ABOVE MAY BE INACCURATE!!!
"$" is an indication the sensor requires maintenance

METAR text: KPHL 190545Z 12006KT 6SM BR BKN010 BKN024 BKN050 26/24 A2989 RMK AO2 T02560239 $
Conditions at: KPHL (PHILADELPHIA , PA, US) observed 0545 UTC 19 July 2019
Temperature: 25.6°C (78°F)
Dewpoint: 23.9°C (75°F) [RH = 90%]
Pressure (altimeter): 29.89 inches Hg (1012.3 mb)
Winds: from the ESE (120 degrees) at 7 MPH (6 knots; 3.1 m/s)
Visibility: 6 miles (10 km)
Ceiling: 1000 feet AGL
Clouds: broken clouds at 1000 feet AGL
broken clouds at 2400 feet AGL
broken clouds at 5000 feet AGL
Weather: BR  (mist)
SOME DATA ABOVE MAY BE INACCURATE!!!
"$" is an indication the sensor requires maintenance

METAR text: KPHL 190535Z 11006KT 7SM BKN010 BKN021 OVC040 26/24 A2989 RMK AO2 T02560239 $
Conditions at: KPHL (PHILADELPHIA , PA, US) observed 0535 UTC 19 July 2019
Temperature: 25.6°C (78°F)
Dewpoint: 23.9°C (75°F) [RH = 90%]
Pressure (altimeter): 29.89 inches Hg (1012.3 mb)
Winds: from the ESE (110 degrees) at 7 MPH (6 knots; 3.1 m/s)
Visibility: 7 miles (11 km)
Ceiling: 1000 feet AGL
Clouds: broken clouds at 1000 feet AGL
broken clouds at 2100 feet AGL
overcast cloud deck at 4000 feet AGL
Weather:
SOME DATA ABOVE MAY BE INACCURATE!!!
"$" is an indication the sensor requires maintenance

METAR text: KPHL 190506Z 00000KT 7SM BKN016 BKN021 OVC040 26/24 A2990 RMK AO2 T02560239 $
Conditions at: KPHL (PHILADELPHIA , PA, US) observed 0506 UTC 19 July 2019
Temperature: 25.6°C (78°F)
Dewpoint: 23.9°C (75°F) [RH = 90%]
Pressure (altimeter): 29.90 inches Hg (1012.6 mb)
Winds: calm
Visibility: 7 miles (11 km)
Ceiling: 1600 feet AGL
Clouds: broken clouds at 1600 feet AGL
broken clouds at 2100 feet AGL
overcast cloud deck at 4000 feet AGL
Weather:
SOME DATA ABOVE MAY BE INACCURATE!!!
"$" is an indication the sensor requires maintenance

Forecast for: KPHL (PHILADELPHIA , PA, US)
Text: KPHL 190524Z 1906/2012 VRB03KT 6SM BR BKN008 OVC015
Forecast period: 0600 to 1000 UTC 19 July 2019
Forecast type: FROM: standard forecast or significant change
Winds: variable direction winds at 3 MPH (3 knots; 1.5 m/s)
Visibility: 6 miles (10 km)
Ceiling: 800 feet AGL
Clouds: broken clouds at 800 feet AGL
overcast cloud deck at 1500 feet AGL
Weather: BR  (mist)
Text: TEMPO 1906/1910 4SM BR SCT008 BKN015
Forecast period: 0600 to 1000 UTC 19 July 2019
Forecast type: TEMPORARY: The following changes expected for less than half the time period
Visibility: 4 miles (6 km)
Ceiling: 1500 feet AGL
Clouds: scattered clouds at 800 feet AGL
broken clouds at 1500 feet AGL
Weather: BR  (mist)
Text: FM191000 VRB03KT 6SM BR SCT008 BKN015
Forecast period: 1000 to 1300 UTC 19 July 2019
Forecast type: FROM: standard forecast or significant change
Winds: variable direction winds at 3 MPH (3 knots; 1.5 m/s)
Visibility: 6 miles (10 km)
Ceiling: 1500 feet AGL
Clouds: scattered clouds at 800 feet AGL
broken clouds at 1500 feet AGL
Weather: BR  (mist)
Text: FM191300 23004KT P6SM BKN025
Forecast period: 1300 to 1400 UTC 19 July 2019
Forecast type: FROM: standard forecast or significant change
Winds: from the SW (230 degrees) at 5 MPH (4 knots; 2.1 m/s)
Visibility: 6 or more miles 10+ km)
Ceiling: 2500 feet AGL
Clouds: broken clouds at 2500 feet AGL
Weather: no significant weather forecast for this period
Text: FM191400 23010KT P6SM SCT040
Forecast period: 1400 UTC 19 July 2019 to 0100 UTC 20 July 2019
Forecast type: FROM: standard forecast or significant change
Winds: from the SW (230 degrees) at 12 MPH (10 knots; 5.1 m/s)
Visibility: 6 or more miles 10+ km)
Ceiling: at least 12,000 feet AGL
Clouds: scattered clouds at 4000 feet AGL
Weather: no significant weather forecast for this period
Text: FM200100 25004KT P6SM SCT040
Forecast period: 0100 to 1200 UTC 20 July 2019
Forecast type: FROM: standard forecast or significant change
Winds: from the WSW (250 degrees) at 5 MPH (4 knots; 2.1 m/s)
Visibility: 6 or more miles 10+ km)
Ceiling: at least 12,000 feet AGL
Clouds: scattered clouds at 4000 feet AGL
Weather: no significant weather forecast for this period